Time;durP1;ratioP1;P1;durP2;ratioP2;P2;SDS_P1;SDS_P2;PMS_P1;PMS_P2;Temp;Humidity;BMP_temperature;BMP_pressure;BME280_temperature;BME280_humidity;BME280_pressure;Samples;Min_cycle;Max_cycle;Signal;HPM_P1;HPM_P2
2021/06/30 00:01:35;;;;;;;0.55;0.35;;;17.10;83.80;;;;;;5032831;28;20493;-71
2021/06/30 00:04:08;;;;;;;1.20;0.40;;;17.20;83.80;;;;;;5019379;28;20043;-71
2021/06/30 00:06:40;;;;;;;0.82;0.40;;;17.10;83.90;;;;;;5016964;28;20474;-71
2021/06/30 00:09:15;;;;;;;0.85;0.30;;;17.10;83.90;;;;;;5014497;28;20091;-71
2021/06/30 00:11:47;;;;;;;1.00;0.50;;;17.10;84.20;;;;;;5032656;28;20046;-71
2021/06/30 00:14:14;;;;;;;0.90;0.40;;;17.10;84.20;;;;;;5032761;28;20034;-71
2021/06/30 00:16:47;;;;;;;0.93;0.30;;;17.00;84.30;;;;;;5032752;28;20512;-71
2021/06/30 00:19:20;;;;;;;0.60;0.30;;;17.00;84.50;;;;;;5030110;28;20038;-72
2021/06/30 00:21:52;;;;;;;;;;;17.00;84.70;;;;;;5027656;28;20124;-71
2021/06/30 00:24:24;;;;;;;1.02;0.35;;;16.90;84.50;;;;;;5036110;28;19925;-71
2021/06/30 00:26:55;;;;;;;0.57;0.30;;;16.80;84.80;;;;;;5022804;28;20409;-72
2021/06/30 00:29:27;;;;;;;0.65;0.30;;;16.80;85.10;;;;;;5034551;28;20041;-72
2021/06/30 00:31:59;;;;;;;1.05;0.40;;;16.70;85.20;;;;;;5034461;28;20033;-72
2021/06/30 00:34:31;;;;;;;0.60;0.30;;;16.70;85.30;;;;;;5009896;28;20356;-72
2021/06/30 00:37:03;;;;;;;0.90;0.30;;;16.70;85.40;;;;;;5029918;28;20038;-72
2021/06/30 00:39:35;;;;;;;0.73;0.30;;;16.70;85.50;;;;;;5009736;28;20124;-71
2021/06/30 00:42:07;;;;;;;0.43;0.20;;;16.70;85.50;;;;;;5030605;28;20639;-72
2021/06/30 00:44:34;;;;;;;0.65;0.35;;;16.70;85.60;;;;;;5032650;28;20041;-72
2021/06/30 00:47:06;;;;;;;0.70;0.40;;;16.70;85.60;;;;;;5032811;28;20452;-72
2021/06/30 00:49:38;;;;;;;0.68;0.40;;;16.80;85.50;;;;;;5032617;28;20091;-72
2021/06/30 00:52:10;;;;;;;0.77;0.30;;;16.80;85.30;;;;;;5032223;28;20060;-72
2021/06/30 00:54:43;;;;;;;1.05;0.40;;;16.80;85.40;;;;;;5032761;28;20042;-72
2021/06/30 00:57:17;;;;;;;0.95;0.25;;;16.80;85.40;;;;;;5032718;28;20038;-72
2021/06/30 00:59:49;;;;;;;0.50;0.20;;;16.80;85.50;;;;;;5027712;28;20029;-72
2021/06/30 01:02:16;;;;;;;0.40;0.20;;;16.80;85.50;;;;;;5032568;28;20087;-72
2021/06/30 01:04:48;;;;;;;0.75;0.30;;;16.80;85.50;;;;;;5010630;28;20057;-72
2021/06/30 01:07:20;;;;;;;1.33;0.30;;;16.80;85.50;;;;;;5031967;28;20041;-72
2021/06/30 01:09:52;;;;;;;1.50;0.43;;;16.70;85.50;;;;;;5032234;28;20492;-72
2021/06/30 01:12:24;;;;;;;0.50;0.30;;;16.70;85.70;;;;;;5034653;28;20038;-72
2021/06/30 01:14:51;;;;;;;1.05;0.40;;;16.70;85.80;;;;;;5023345;28;20041;-72
2021/06/30 01:17:22;;;;;;;1.10;0.40;;;16.70;85.80;;;;;;5032343;28;20033;-72
2021/06/30 01:19:54;;;;;;;0.55;0.28;;;16.70;85.70;;;;;;5017150;28;20060;-72
2021/06/30 01:22:27;;;;;;;0.75;0.30;;;16.80;85.60;;;;;;5032330;28;20045;-72
2021/06/30 01:24:59;;;;;;;0.43;0.28;;;16.80;85.50;;;;;;5032176;28;20057;-72
2021/06/30 01:27:33;;;;;;;0.88;0.35;;;16.80;85.50;;;;;;5032119;28;20048;-72
2021/06/30 01:30:06;;;;;;;0.30;0.20;;;16.80;85.50;;;;;;5032025;28;20049;-72
2021/06/30 01:32:38;;;;;;;0.95;0.30;;;16.90;85.50;;;;;;5029951;28;20091;-72
2021/06/30 01:35:22;;;;;;;0.50;0.22;;;16.90;85.30;;;;;;5031674;28;20033;-72
2021/06/30 01:37:54;;;;;;;1.40;0.28;;;16.90;85.30;;;;;;5033831;28;20444;-72
2021/06/30 01:40:27;;;;;;;0.63;0.30;;;16.80;85.50;;;;;;5038548;28;20033;-72
2021/06/30 01:42:59;;;;;;;;;;;16.80;85.50;;;;;;5032572;28;20037;-72
2021/06/30 01:45:31;;;;;;;0.52;0.25;;;16.80;85.50;;;;;;5031613;28;19943;-72
2021/06/30 01:48:04;;;;;;;0.95;0.30;;;16.70;85.50;;;;;;5038150;28;20607;-72
2021/06/30 01:50:32;;;;;;;0.65;0.30;;;16.70;85.70;;;;;;5031646;28;20046;-72
2021/06/30 01:53:05;;;;;;;0.77;0.20;;;16.70;85.80;;;;;;5031888;28;20056;-72
2021/06/30 01:55:37;;;;;;;1.25;0.40;;;16.70;85.90;;;;;;5034451;28;20060;-72
2021/06/30 01:58:09;;;;;;;0.57;0.30;;;16.60;86.50;;;;;;5031631;28;20042;-72
2021/06/30 02:00:40;;;;;;;0.50;0.30;;;16.60;86.00;;;;;;5018438;28;20041;-72
2021/06/30 02:03:12;;;;;;;0.80;0.40;;;16.60;86.10;;;;;;5015709;28;20049;-72
2021/06/30 02:05:45;;;;;;;0.63;0.30;;;16.50;86.10;;;;;;5013700;28;20041;-72
2021/06/30 02:08:17;;;;;;;1.17;0.50;;;16.50;86.10;;;;;;5031077;28;20045;-72
2021/06/30 02:10:50;;;;;;;1.13;0.38;;;16.50;86.30;;;;;;5031057;28;20042;-72
2021/06/30 02:13:22;;;;;;;;;;;16.50;86.30;;;;;;5031825;28;20038;-72
2021/06/30 02:15:54;;;;;;;1.02;0.50;;;16.40;86.40;;;;;;5032111;28;19924;-72
2021/06/30 02:18:25;;;;;;;1.20;0.50;;;16.40;86.50;;;;;;5031323;28;20033;-72
2021/06/30 02:20:53;;;;;;;0.63;0.30;;;16.40;86.60;;;;;;5035104;28;20048;-72
2021/06/30 02:23:24;;;;;;;0.80;0.30;;;16.40;86.60;;;;;;5015842;28;20397;-72
2021/06/30 02:25:57;;;;;;;0.60;0.28;;;16.40;86.70;;;;;;5032960;28;20413;-72
2021/06/30 02:28:29;;;;;;;0.88;0.40;;;16.40;86.70;;;;;;5025375;28;20154;-72
2021/06/30 02:31:03;;;;;;;0.90;0.40;;;16.30;86.80;;;;;;5030848;28;20045;-72
2021/06/30 02:33:35;;;;;;;0.85;0.40;;;16.30;87.00;;;;;;5011632;28;20048;-72
2021/06/30 02:36:06;;;;;;;1.00;0.40;;;16.20;87.00;;;;;;5029055;28;20033;-72
2021/06/30 02:38:39;;;;;;;0.55;0.25;;;16.20;87.30;;;;;;5027954;28;20342;-72
2021/06/30 02:41:11;;;;;;;;;;;16.10;87.30;;;;;;5034568;28;20529;-72
2021/06/30 02:43:43;;;;;;;1.05;0.50;;;16.10;87.50;;;;;;5040801;28;19928;-72
2021/06/30 02:46:15;;;;;;;0.50;0.32;;;16.00;87.60;;;;;;5027750;28;20490;-72
2021/06/30 02:48:47;;;;;;;0.95;0.40;;;15.90;87.90;;;;;;5014313;28;20049;-72
2021/06/30 02:51:19;;;;;;;1.55;0.50;;;15.80;87.90;;;;;;5024973;28;20115;-72
2021/06/30 02:53:51;;;;;;;0.55;0.30;;;15.80;88.00;;;;;;5032140;28;20087;-72
2021/06/30 02:56:22;;;;;;;1.17;0.30;;;15.90;88.00;;;;;;5030565;28;20041;-72
2021/06/30 02:58:50;;;;;;;0.40;0.20;;;15.90;88.00;;;;;;5028468;28;20527;-72
2021/06/30 03:01:21;;;;;;;1.92;0.32;;;16.00;88.00;;;;;;5032013;28;20413;-72
2021/06/30 03:03:53;;;;;;;0.60;0.30;;;16.00;87.90;;;;;;5031033;28;20052;-72
2021/06/30 03:06:26;;;;;;;0.98;0.30;;;15.90;88.00;;;;;;5030110;28;20109;-72
2021/06/30 03:08:58;;;;;;;0.88;0.32;;;15.90;88.20;;;;;;5027421;28;20052;-72
2021/06/30 03:11:30;;;;;;;0.32;0.20;;;15.80;88.30;;;;;;5027821;28;20497;-72
2021/06/30 03:14:01;;;;;;;0.63;0.22;;;15.80;89.00;;;;;;5026515;28;20049;-72
2021/06/30 03:16:33;;;;;;;0.40;0.20;;;15.90;88.50;;;;;;5025165;28;20033;-72
2021/06/30 03:19:05;;;;;;;0.57;0.22;;;15.90;88.50;;;;;;5014201;28;20124;-72
2021/06/30 03:21:37;;;;;;;0.60;0.30;;;15.90;88.50;;;;;;5029906;28;20386;-72
2021/06/30 03:24:10;;;;;;;1.08;0.38;;;15.90;88.50;;;;;;5031313;28;20065;-72
2021/06/30 03:26:42;;;;;;;;;;;15.90;88.60;;;;;;5016836;28;20497;-72
2021/06/30 03:29:13;;;;;;;1.30;0.20;;;15.90;88.50;;;;;;5029881;28;19932;-72
2021/06/30 03:31:46;;;;;;;0.52;0.30;;;15.90;88.90;;;;;;5022747;28;20042;-72
2021/06/30 03:34:18;;;;;;;;;;;15.90;89.20;;;;;;5031695;28;20061;-72
2021/06/30 03:36:50;;;;;;;0.82;0.45;;;;;;;;;;5013753;28;20443;-72
2021/06/30 03:39:22;;;;;;;0.60;0.30;;;;;;;;;;5030440;28;20389;-72
2021/06/30 03:41:55;;;;;;;0.68;0.30;;;;;;;;;;5022288;28;20068;-72
2021/06/30 03:44:22;;;;;;;0.50;0.40;;;;;;;;;;5017470;28;20060;-72
2021/06/30 03:46:54;;;;;;;;;;;;;;;;;;5029461;28;20056;-72
2021/06/30 03:49:27;;;;;;;0.90;0.30;;;;;;;;;;5029856;28;19925;-72
2021/06/30 03:51:59;;;;;;;0.73;0.30;;;;;;;;;;5027247;28;20049;-72
2021/06/30 03:54:31;;;;;;;0.38;0.30;;;;;;;;;;5024036;28;20049;-72
2021/06/30 03:56:58;;;;;;;0.85;0.30;;;;;;;;;;5030194;28;20421;-72
2021/06/30 03:59:32;;;;;;;0.38;0.20;;;;;;;;;;5029964;28;20543;-72
2021/06/30 04:02:04;;;;;;;1.38;0.30;;;;;;;;;;5014589;28;20140;-72
2021/06/30 04:04:36;;;;;;;0.90;0.30;;;;;;;;;;5031285;28;20057;-72
2021/06/30 04:07:09;;;;;;;0.60;0.30;;;;;;;;;;5029789;28;20428;-72
2021/06/30 04:09:41;;;;;;;1.17;0.35;;;;;;;;;;5012578;28;20061;-72
2021/06/30 04:12:13;;;;;;;1.17;0.50;;;;;;;;;;5032117;28;20048;-72
2021/06/30 04:14:45;;;;;;;1.08;0.50;;;;;;;;;;5031634;28;20485;-72
2021/06/30 04:17:13;;;;;;;0.45;0.28;;;;;;;;;;5027608;28;20041;-72
2021/06/30 04:19:45;;;;;;;2.05;0.40;;;;;;;;;;5029909;28;20113;-72
2021/06/30 04:22:12;;;;;;;0.68;0.40;;;;;;;;;;5033360;28;20084;-72
2021/06/30 04:24:45;;;;;;;0.50;0.30;;;;;;;;;;5033958;28;20045;-72
2021/06/30 04:27:17;;;;;;;1.02;0.52;;;;;;;;;;5015160;28;20409;-72
2021/06/30 04:29:49;;;;;;;1.52;0.60;;;;;;;;;;5029890;28;20037;-72
2021/06/30 04:32:21;;;;;;;0.98;0.40;;;;;;;;;;5028171;28;20045;-72
2021/06/30 04:34:54;;;;;;;2.13;0.63;;;;;;;;;;5033688;28;20041;-72
2021/06/30 04:37:26;;;;;;;1.83;0.77;;;;;;;;;;5017383;28;20033;-72
2021/06/30 04:39:58;;;;;;;1.92;0.80;;;;;;;;;;5032547;28;20037;-72
2021/06/30 04:42:31;;;;;;;1.10;0.60;;;;;;;;;;5032132;28;20037;-72
2021/06/30 04:45:03;;;;;;;1.85;0.75;;;;;;;;;;5017247;28;20038;-72
2021/06/30 04:47:35;;;;;;;;;;;;;;;;;;5018726;28;20055;-72
2021/06/30 04:50:08;;;;;;;1.33;0.70;;;;;;;;;;5031277;28;20368;-72
2021/06/30 04:52:40;;;;;;;;;;;;;;;;;;5031453;28;20044;-72
2021/06/30 04:55:13;;;;;;;1.27;0.60;;;;;;;;;;5032674;28;20347;-72
2021/06/30 04:57:45;;;;;;;1.88;0.90;;;;;;;;;;5032415;28;20042;-72
2021/06/30 05:00:18;;;;;;;1.60;0.90;;;;;;;;;;5026043;28;20079;-72
2021/06/30 05:02:50;;;;;;;;;;;;;;;;;;5020220;28;20049;-72
2021/06/30 05:05:22;;;;;;;1.60;0.80;;;;;;;;;;5028284;28;19925;-72
2021/06/30 05:07:55;;;;;;;1.75;0.80;;;;;;;;;;5024396;28;20284;-72
2021/06/30 05:10:27;;;;;;;3.53;0.85;;;;;;;;;;5032587;28;20037;-72
2021/06/30 05:13:00;;;;;;;3.50;0.90;;;;;;;;;;5025246;28;20176;-72
2021/06/30 05:15:32;;;;;;;2.08;1.00;;;;;;;;;;5017599;28;20040;-71
2021/06/30 05:18:04;;;;;;;2.63;1.35;;;;;;;;;;5033948;28;20409;-72
2021/06/30 05:20:37;;;;;;;2.30;1.00;;;;;;;;;;5031476;28;20084;-72
2021/06/30 05:23:09;;;;;;;;;;;;;;;;;;5015287;28;20050;-71
2021/06/30 05:25:41;;;;;;;2.87;0.97;;;;;;;;;;5035012;28;19971;-71
2021/06/30 05:28:13;;;;;;;2.42;1.02;;;;;;;;;;5034258;28;20696;-72
2021/06/30 05:30:46;;;;;;;3.15;1.00;;;;;;;;;;5034416;28;20438;-72
2021/06/30 05:33:18;;;;;;;2.33;1.38;;;;;;;;;;5016575;28;20131;-72
2021/06/30 05:35:50;;;;;;;1.70;0.90;;;;;;;;;;5019162;28;20052;-72
2021/06/30 05:38:23;;;;;;;;;;;;;;;;;;5023566;28;20536;-72
2021/06/30 05:40:55;;;;;;;1.85;0.77;;;;;;;;;;5029728;28;19925;-72
2021/06/30 05:43:29;;;;;;;1.67;0.93;;;;;;;;;;5031817;28;20041;-72
2021/06/30 05:46:01;;;;;;;2.65;0.93;;;;;;;;;;5032068;28;20048;-72
2021/06/30 05:48:34;;;;;;;2.58;1.10;;;;;;;;;;5023907;28;20041;-72
2021/06/30 05:51:07;;;;;;;1.80;0.80;;;;;;;;;;5033411;28;20710;-72
2021/06/30 05:53:40;;;;;;;3.42;0.90;;;;;;;;;;5030657;28;20674;-71
2021/06/30 05:56:12;;;;;;;3.05;0.85;;;;;;;;;;5030820;28;20044;-72
2021/06/30 05:58:45;;;;;;;2.15;0.85;;;;;;;;;;5033792;28;20042;-72
2021/06/30 06:01:17;;;;;;;1.42;0.70;;;;;;;;;;5034049;28;20494;-72
2021/06/30 06:03:49;;;;;;;1.65;0.70;;;;;;;;;;5018756;28;20054;-72
2021/06/30 06:06:22;;;;;;;1.67;0.80;;;;;;;;;;5029949;28;20051;-72
2021/06/30 06:08:54;;;;;;;2.30;1.10;;;;;;;;;;5029935;28;20049;-73
2021/06/30 06:11:26;;;;;;;2.00;0.95;;;;;;;;;;5031063;28;20048;-72
2021/06/30 06:13:59;;;;;;;1.98;0.88;;;;;;;;;;5029979;28;20433;-72
2021/06/30 06:16:31;;;;;;;1.55;0.90;;;;;;;;;;5027102;28;20492;-73
2021/06/30 06:19:03;;;;;;;;;;;;;;;;;;5020220;28;20045;-73
2021/06/30 06:21:36;;;;;;;2.73;0.63;;;;;;;;;;5031076;28;19936;-73
2021/06/30 06:24:08;;;;;;;3.05;1.13;;;;;;;;;;5022124;28;20280;-73
2021/06/30 06:26:36;;;;;;;2.42;1.30;;;;;;;;;;4999185;28;20480;-73
2021/06/30 06:29:09;;;;;;;1.42;0.75;;;;;;;;;;5022097;28;20033;-72
2021/06/30 06:31:37;;;;;;;2.20;0.70;;;;;;;;;;5032020;28;20045;-72
2021/06/30 06:34:10;;;;;;;1.55;0.80;;;;;;;;;;5030356;28;20091;-73
2021/06/30 06:36:42;;;;;;;1.63;0.85;;;;;;;;;;5026087;28;20389;-73
2021/06/30 06:39:15;;;;;;;1.75;0.70;;;;;;;;;;5028865;28;20037;-72
2021/06/30 06:41:48;;;;;;;2.50;1.02;;;;;;;;;;5025452;28;20029;-73
2021/06/30 06:44:16;;;;;;;1.65;1.10;;;;;;;;;;4996585;28;20129;-73
2021/06/30 06:46:43;;;;;;;1.92;1.13;;;;;;;;;;5032986;28;20512;-73
2021/06/30 06:49:16;;;;;;;1.58;0.75;;;;;;;;;;5014869;28;20579;-73
2021/06/30 06:51:48;;;;;;;1.67;0.70;;;;;;;;;;5000459;28;20139;-73
2021/06/30 06:54:20;;;;;;;1.42;0.60;;;;;;;;;;5022058;28;20117;-73
2021/06/30 06:56:52;;;;;;;1.63;0.70;;;;;;;;;;5014022;28;20045;-72
2021/06/30 06:59:25;;;;;;;1.88;0.75;;;;;;;;;;5028484;28;20129;-73
2021/06/30 07:01:57;;;;;;;1.95;0.95;;;;;;;;;;5030030;28;20103;-73
2021/06/30 07:04:29;;;;;;;1.17;0.70;;;;;;;;;;5010741;28;20049;-72
2021/06/30 07:07:02;;;;;;;1.30;0.80;;;;;;;;;;5029401;28;20052;-75
2021/06/30 07:09:29;;;;;;;2.25;0.93;;;;;;;;;;5028565;28;20037;-75
2021/06/30 07:12:01;;;;;;;1.20;0.60;;;;;;;;;;5030867;28;20041;-76
2021/06/30 07:14:34;;;;;;;1.45;0.63;;;;;;;;;;5032460;28;20041;-74
2021/06/30 07:17:06;;;;;;;1.45;0.70;;;;;;;;;;5018611;28;20037;-76
2021/06/30 07:19:38;;;;;;;1.55;0.63;;;;;;;;;;5036638;28;20030;-75
2021/06/30 07:22:11;;;;;;;;;;;;;;;;;;5014951;28;20132;-76
2021/06/30 07:24:43;;;;;;;1.73;0.80;;;;;;;;;;5011644;28;19921;-76
2021/06/30 07:27:15;;;;;;;1.63;0.60;;;;;;;;;;5037131;28;20030;-76
2021/06/30 07:29:47;;;;;;;1.75;0.85;;;;;;;;;;5016881;28;20064;-76
2021/06/30 07:32:20;;;;;;;1.83;0.70;;;;;;;;;;5016586;28;20053;-76
2021/06/30 07:34:55;;;;;;;2.22;0.82;;;;;;;;;;5031118;28;20113;-75
2021/06/30 07:37:27;;;;;;;2.30;0.60;;;;;;;;;;5039325;28;20096;-76
2021/06/30 07:39:59;;;;;;;3.40;0.70;;;;;;;;;;5001125;28;20033;-76
2021/06/30 07:42:32;;;;;;;2.00;0.82;;;;;;;;;;5042568;28;20037;-75
2021/06/30 07:45:05;;;;;;;1.77;0.73;;;;;;;;;;5013637;28;20056;-76
2021/06/30 07:47:32;;;;;;;1.67;0.80;;;;;;;;;;5044147;28;20048;-77
2021/06/30 07:50:01;;;;;;;1.75;0.73;;;;;;;;;;5017856;28;20038;-76
2021/06/30 07:52:28;;;;;;;1.50;0.80;;;;;;;;;;5032484;28;20045;-76
2021/06/30 07:54:55;;;;;;;1.80;1.00;;;;;;;;;;5034706;28;20037;-76
2021/06/30 07:57:23;;;;;;;2.90;1.00;;;;;;;;;;5002170;28;20126;-76
2021/06/30 07:59:50;;;;;;;1.90;0.93;;;;;;;;;;5035133;28;20099;-76
2021/06/30 08:02:18;;;;;;;2.42;1.40;;;;;;;;;;5035309;28;20482;-76
2021/06/30 08:04:45;;;;;;;2.55;1.40;;;;;;;;;;5037062;28;20099;-77
2021/06/30 08:07:12;;;;;;;3.30;1.30;;;;;;;;;;5033556;28;20661;-76
2021/06/30 08:09:40;;;;;;;2.88;1.50;;;;;;;;;;5036750;28;20504;-76
2021/06/30 08:12:09;;;;;;;1.80;0.95;;;;;;;;;;5035963;28;20069;-76
2021/06/30 08:14:37;;;;;;;2.40;1.30;;;;;;;;;;5028779;28;20045;-76
2021/06/30 08:17:04;;;;;;;2.38;1.45;;;;;;;;;;5032139;28;20080;-75
2021/06/30 08:19:34;;;;;;;2.70;1.40;;;;;;;;;;5033936;28;20065;-76
2021/06/30 08:22:02;;;;;;;2.83;1.50;;;;;;;;;;5033105;28;20489;-76
2021/06/30 08:24:29;;;;;;;1.92;1.10;;;;;;;;;;5030223;28;20087;-76
2021/06/30 08:26:57;;;;;;;2.92;1.60;;;;;;;;;;5028882;28;20045;-78
2021/06/30 08:29:25;;;;;;;3.28;1.20;;;;;;;;;;5018148;28;20115;-77
2021/06/30 08:31:56;;;;;;;2.22;1.13;;;;;;;;;;5005324;28;20041;-77
2021/06/30 08:34:26;;;;;;;2.38;1.17;;;;;;;;;;5017199;28;20045;-76
2021/06/30 08:37:02;;;;;;;2.25;1.20;;;;;;;;;;5034519;28;20076;-76
2021/06/30 08:39:29;;;;;;;2.25;1.13;;;;;;;;;;5029808;28;20033;-76
2021/06/30 08:41:57;;;;;;;2.30;1.00;;;;;;;;;;5034166;28;20037;-76
2021/06/30 08:44:25;;;;;;;2.17;1.10;;;;;;;;;;5015549;28;20492;-77
2021/06/30 08:46:54;;;;;;;2.13;1.15;;;;;;;;;;5031314;28;20049;-77
2021/06/30 08:49:25;;;;;;;2.58;1.05;;;;;;;;;;5019810;28;20049;-77
2021/06/30 08:51:53;;;;;;;1.92;1.05;;;;;;;;;;5017402;28;20046;-77
2021/06/30 08:54:21;;;;;;;1.77;0.90;;;;;;;;;;5015866;28;20076;-77
2021/06/30 08:56:49;;;;;;;2.38;1.30;;;;;;;;;;5034004;28;20042;-77
2021/06/30 08:59:17;;;;;;;1.85;0.88;;;;;;;;;;5022115;28;20396;-78
2021/06/30 09:01:45;;;;;;;1.83;0.82;;;;;;;;;;5032033;28;20076;-76
2021/06/30 09:04:13;;;;;;;2.13;1.20;;;;;;;;;;5033472;28;20521;-78
2021/06/30 09:06:40;;;;;;;1.98;1.08;;;;;;;;;;5031551;28;20038;-78
2021/06/30 09:09:15;;;;;;;2.17;1.10;;;;;;;;;;5034009;28;20099;-79
2021/06/30 09:11:43;;;;;;;1.38;0.80;;;;;;;;;;5032513;28;20440;-76
2021/06/30 09:14:12;;;;;;;1.85;0.85;;;;;;;;;;5034293;28;20099;-78
2021/06/30 09:16:54;;;;;;;1.85;1.00;;;;;;;;;;5037234;28;20484;-78
2021/06/30 09:19:45;;;;;;;1.80;1.13;;;;;;;;;;5038798;28;20037;-75
2021/06/30 09:22:13;;;;;;;2.60;1.23;;;;;;;;;;5015692;28;20041;-75
2021/06/30 09:24:40;;;;;;;2.47;1.33;;;;;;;;;;5031116;28;20091;-75
2021/06/30 09:27:09;;;;;;;2.33;1.00;;;;;;;;;;5026835;28;20045;-76
2021/06/30 09:29:41;;;;;;;1.95;0.90;;;;;;;;;;5016863;28;20481;-73
2021/06/30 09:32:13;;;;;;;1.75;0.70;;;;;;;;;;5010602;28;20037;-74
2021/06/30 09:34:41;;;;;;;2.33;1.50;;;;;;;;;;5029756;28;20386;-74
2021/06/30 09:37:10;;;;;;;1.85;1.02;;;;;;;;;;5032245;28;20446;-75
2021/06/30 09:39:39;;;;;;;1.83;1.10;;;;;;;;;;5020226;28;20037;-74
2021/06/30 09:42:10;;;;;;;2.13;1.42;;;;;;;;;;5032168;28;20041;-76
2021/06/30 09:44:39;;;;;;;1.42;0.85;;;;;;;;;;5028767;28;20037;-76
2021/06/30 09:47:08;;;;;;;1.73;1.00;;;;;;;;;;5018046;28;20084;-76
2021/06/30 09:49:36;;;;;;;2.35;1.20;;;;;;;;;;5031888;28;20045;-76
2021/06/30 09:52:18;;;;;;;1.70;1.00;;;;;;;;;;5018052;28;20048;-76
2021/06/30 09:54:47;;;;;;;2.70;1.00;;;;;;;;;;5026167;28;20107;-75
2021/06/30 09:57:18;;;;;;;2.30;1.05;;;;;;;;;;5032393;28;20049;-77
2021/06/30 09:59:45;;;;;;;2.72;1.20;;;;;;;;;;5009086;28;20045;-76
2021/06/30 10:02:17;;;;;;;2.55;1.45;;;;;;;;;;5031905;28;20037;-75
2021/06/30 10:04:46;;;;;;;3.53;1.20;;;;;;;;;;5032180;28;20131;-76
2021/06/30 10:07:14;;;;;;;2.47;1.13;;;;;;;;;;5026959;28;20129;-76
2021/06/30 10:09:49;;;;;;;2.85;1.25;;;;;;;;;;5014862;28;20357;-76
2021/06/30 10:12:18;;;;;;;2.33;1.30;;;;;;;;;;5029290;28;20473;-75
2021/06/30 10:14:46;;;;;;;2.08;1.38;;;;;;;;;;5031983;28;20127;-77
2021/06/30 10:17:15;;;;;;;2.78;1.60;;;;;;;;;;5013812;28;20065;-75
2021/06/30 10:19:44;;;;;;;2.83;1.33;;;;;;;;;;5031276;28;20116;-74
2021/06/30 10:22:20;;;;;;;1.80;0.90;;;;;;;;;;5029286;28;20069;-74
2021/06/30 10:24:48;;;;;;;2.38;1.25;;;;;;;;;;5018034;28;20103;-77
2021/06/30 10:27:15;;;;;;;3.85;1.40;;;;;;;;;;5001574;28;20052;-75
2021/06/30 10:29:44;;;;;;;2.95;1.77;;;;;;;;;;5031920;28;20046;-76
2021/06/30 10:32:15;;;;;;;2.53;1.40;;;;;;;;;;5025918;28;20038;-80
2021/06/30 10:34:45;;;;;;;2.63;1.48;;;;;;;;;;5025039;28;20448;-78
2021/06/30 10:37:24;;;;;;;3.80;1.83;;;;;;;;;;5031050;28;20091;-73
2021/06/30 10:39:56;;;;;;;2.13;1.25;;;;;;;;;;5024449;28;20061;-74
2021/06/30 10:42:46;;;;;;;2.15;1.25;;;;;;;;;;5029193;28;20045;-74
2021/06/30 10:45:13;;;;;;;3.33;1.90;;;;;;;;;;5030052;28;20033;-74
2021/06/30 10:47:43;;;;;;;3.45;1.67;;;;;;;;;;5030461;28;20041;-73
2021/06/30 10:50:22;;;;;;;2.33;1.33;;;;;;;;;;5027285;28;20095;-74
2021/06/30 10:53:02;;;;;;;2.83;1.63;;;;;;;;;;5020505;28;20148;-74
2021/06/30 10:55:36;;;;;;;3.30;2.15;;;;;;;;;;5033119;28;20787;-74
2021/06/30 10:58:13;;;;;;;2.38;1.15;;;;;;;;;;5013360;28;20049;-74
2021/06/30 11:00:48;;;;;;;1.65;1.10;;;;;;;;;;5030897;28;20095;-74
2021/06/30 11:03:23;;;;;;;2.70;1.30;;;;;;;;;;5029475;28;20079;-74
2021/06/30 11:05:51;;;;;;;1.30;0.80;;;;;;;;;;5031171;28;20053;-75
2021/06/30 11:08:37;;;;;;;1.55;0.75;;;;;;;;;;5030729;28;20128;-74
2021/06/30 11:11:04;;;;;;;1.88;1.00;;;;;;;;;;5030857;28;20041;-75
2021/06/30 11:13:50;;;;;;;1.65;0.93;;;;;;;;;;5029447;28;20049;-74
2021/06/30 11:16:39;;;;;;;1.63;0.82;;;;;;;;;;5030996;28;20099;-74
2021/06/30 11:19:19;;;;;;;1.75;0.95;;;;;;;;;;5026865;28;20045;-74
2021/06/30 11:21:56;;;;;;;2.17;1.23;;;;;;;;;;5018130;28;20055;-74
2021/06/30 11:27:32;;;;;;;2.30;1.05;;;;;;;;;;5030094;28;20477;-75
2021/06/30 11:30:02;;;;;;;3.72;1.35;;;;;;;;;;5012073;28;20125;-75
2021/06/30 11:35:01;;;;;;;3.17;1.45;;;;;;;;;;5027263;28;21283;-75
2021/06/30 11:37:29;;;;;;;2.67;1.38;;;;;;;;;;5025349;28;20119;-74
2021/06/30 11:39:58;;;;;;;2.40;1.70;;;;;;;;;;5017670;28;20099;-74
2021/06/30 11:42:32;;;;;;;2.40;1.65;;;;;;;;;;5018372;28;20095;-77
2021/06/30 11:44:59;;;;;;;3.25;2.03;;;;;;;;;;5008696;28;20049;-75
2021/06/30 11:47:27;;;;;;;3.53;2.13;;;;;;;;;;5031958;28;20049;-74
2021/06/30 11:50:01;;;;;;;2.80;1.58;;;;;;;;;;5029267;28;20124;-75
2021/06/30 11:52:30;;;;;;;2.60;1.70;;;;;;;;;;5029572;28;20468;-74
2021/06/30 11:54:58;;;;;;;3.67;2.42;;;;;;;;;;5014473;28;20038;-75
2021/06/30 11:57:26;;;;;;;5.30;2.90;;;;;;;;;;5012630;28;20037;-75
2021/06/30 12:00:03;;;;;;;3.95;2.45;;;;;;;;;;5026705;28;20041;-75
2021/06/30 12:02:45;;;;;;;4.88;3.03;;;;;;;;;;5028718;28;20481;-75
2021/06/30 12:05:13;;;;;;;4.63;2.78;;;;;;;;;;5020298;28;20053;-76
2021/06/30 12:07:41;;;;;;;6.00;3.63;;;;;;;;;;5024674;28;20520;-77
2021/06/30 12:10:09;;;;;;;5.10;3.15;;;;;;;;;;5028900;28;20038;-76
2021/06/30 12:12:36;;;;;;;4.85;3.30;;;;;;;;;;4996277;28;20041;-76
2021/06/30 12:15:04;;;;;;;4.30;3.17;;;;;;;;;;5028917;28;20111;-76
2021/06/30 12:17:32;;;;;;;6.13;3.78;;;;;;;;;;5026618;28;20378;-75
2021/06/30 12:20:01;;;;;;;8.25;4.35;;;;;;;;;;5011186;28;20043;-76
2021/06/30 12:22:31;;;;;;;5.22;3.15;;;;;;;;;;4992027;28;20034;-75
2021/06/30 12:25:00;;;;;;;7.00;3.95;;;;;;;;;;5010815;28;20049;-76
2021/06/30 12:27:42;;;;;;;5.93;4.00;;;;;;;;;;5027714;28;20041;-75
2021/06/30 12:30:12;;;;;;;6.75;4.43;;;;;;;;;;5029112;28;20489;-75
2021/06/30 12:32:43;;;;;;;4.80;3.33;;;;;;;;;;5034305;28;20406;-75
2021/06/30 12:35:12;;;;;;;4.07;2.87;;;;;;;;;;5031140;28;20379;-75
2021/06/30 12:37:41;;;;;;;5.35;3.42;;;;;;;;;;5030252;28;20806;-75
2021/06/30 12:40:09;;;;;;;4.78;3.10;;;;;;;;;;5029928;28;20535;-75
2021/06/30 12:42:48;;;;;;;6.13;3.03;;;;;;;;;;5031627;28;20033;-75
2021/06/30 12:45:17;;;;;;;6.25;3.55;;;;;;;;;;5020188;28;20046;-75
2021/06/30 12:47:52;;;;;;;4.63;3.40;;;;;;;;;;5036295;28;20041;-75
2021/06/30 12:50:26;;;;;;;4.90;3.50;;;;;;;;;;5031708;28;20037;-75
2021/06/30 12:53:04;;;;;;;7.93;3.85;;;;;;;;;;5032693;28;20679;-75
2021/06/30 12:55:48;;;;;;;5.55;3.30;;;;;;;;;;5032166;28;20057;-75
2021/06/30 12:58:16;;;;;;;7.30;4.40;;;;;;;;;;5027755;28;20042;-75
2021/06/30 13:00:54;;;;;;;4.90;2.90;;;;;;;;;;5029602;28;20069;-75
2021/06/30 13:03:22;;;;;;;7.95;4.53;;;;;;;;;;5032256;28;20045;-75
2021/06/30 13:05:50;;;;;;;6.35;4.40;;;;;;;;;;5030739;28;20064;-75
2021/06/30 13:08:30;;;;;;;5.22;3.90;;;;;;;;;;5032239;28;20042;-75
2021/06/30 13:11:18;;;;;;;7.25;4.05;;;;;;;;;;5030483;28;20045;-75
2021/06/30 13:13:59;;;;;;;5.82;4.18;;;;;;;;;;5030012;28;20045;-76
2021/06/30 13:16:27;;;;;;;5.45;4.25;;;;;;;;;;5028090;28;20077;-76
2021/06/30 13:18:56;;;;;;;6.80;4.55;;;;;;;;;;5013843;28;20515;-76
2021/06/30 13:21:27;;;;;;;5.75;4.15;;;;;;;;;;5016793;28;20042;-75
2021/06/30 13:35:16;;;;;;;6.32;4.88;;;;;;;;;;5028437;28;20041;-75
2021/06/30 13:37:43;;;;;;;6.63;4.82;;;;;;;;;;5021862;28;20053;-76
2021/06/30 13:40:12;;;;;;;7.20;4.75;;;;;;;;;;5031479;28;20061;-76
2021/06/30 13:42:39;;;;;;;7.07;5.22;;;;;;;;;;5032265;28;20095;-77
2021/06/30 13:45:07;;;;;;;7.53;5.35;;;;;;;;;;5030045;28;20557;-75
2021/06/30 13:47:35;;;;;;;8.43;5.93;;;;;;;;;;5029147;28;20211;-76
2021/06/30 13:50:03;;;;;;;6.20;4.78;;;;;;;;;;5031059;28;20029;-76
2021/06/30 13:52:33;;;;;;;8.82;5.78;;;;;;;;;;5028789;28;20087;-76
2021/06/30 13:55:03;;;;;;;6.80;5.07;;;;;;;;;;5005462;28;20091;-76
2021/06/30 13:57:32;;;;;;;8.27;5.15;;;;;;;;;;5028215;28;20044;-77
2021/06/30 14:00:00;;;;;;;7.97;4.80;;;;;;;;;;5024104;28;20498;-75
2021/06/30 14:02:30;;;;;;;8.70;5.03;;;;;;;;;;5030760;28;20042;-76
2021/06/30 14:04:58;;;;;;;8.90;4.97;;;;;;;;;;5031090;28;20081;-76
2021/06/30 14:07:26;;;;;;;9.32;5.85;;;;;;;;;;5031496;28;20037;-76
2021/06/30 14:09:55;;;;;;;11.20;6.07;;;;;;;;;;5031637;28;20048;-76
2021/06/30 14:12:23;;;;;;;8.32;5.35;;;;;;;;;;5014100;28;20141;-76
2021/06/30 14:14:51;;;;;;;8.25;5.70;;;;;;;;;;5028687;28;20099;-75
2021/06/30 14:17:19;;;;;;;8.55;5.85;;;;;;;;;;5031099;28;20128;-77
2021/06/30 14:19:46;;;;;;;6.88;5.13;;;;;;;;;;5031326;28;20115;-76
2021/06/30 14:22:27;;;;;;;7.55;5.60;;;;;;;;;;5030862;28;20116;-75
2021/06/30 14:24:55;;;;;;;7.03;4.40;;;;;;;;;;5015381;28;20045;-77
2021/06/30 14:27:24;;;;;;;5.88;4.53;;;;;;;;;;5005628;28;20335;-79
2021/06/30 14:29:53;;;;;;;7.78;4.53;;;;;;;;;;5013767;28;20038;-76
2021/06/30 14:32:20;;;;;;;7.07;4.55;;;;;;;;;;5030296;28;20095;-76
2021/06/30 14:34:48;;;;;;;8.02;5.13;;;;;;;;;;5029735;28;20037;-77
2021/06/30 14:37:16;;;;;;;7.80;5.30;;;;;;;;;;5030880;28;20483;-77
2021/06/30 14:39:43;;;;;;;8.77;5.28;;;;;;;;;;5013803;28;20060;-77
2021/06/30 14:42:11;;;;;;;8.98;5.57;;;;;;;;;;5030544;28;20057;-76
2021/06/30 14:44:40;;;;;;;8.65;5.28;;;;;;;;;;5015276;28;20107;-77
2021/06/30 14:47:07;;;;;;;8.15;4.70;;;;;;;;;;5015101;28;20072;-77
2021/06/30 14:49:35;;;;;;;9.43;5.57;;;;;;;;;;5024292;28;20469;-76
2021/06/30 14:52:02;;;;;;;8.70;5.45;;;;;;;;;;5027877;28;20087;-75
2021/06/30 14:54:30;;;;;;;9.98;5.00;;;;;;;;;;5030672;28;20494;-75
2021/06/30 14:56:57;;;;;;;7.82;4.70;;;;;;;;;;5034986;28;20037;-76